New Meadows, ID

10:38 PM PDT on September 03, 2015 (GMT -0700)
RAWS | | Change Station
CLOSE
Current Station
Personal Weather Station
Location: Burnt Ranch, CA
Elevation: 5260 ft
Nearby Weather Stations

Elev 5260 ft 40.83 °N, 123.45 °W | Updated 37 minutes ago

Clear
Clear
42.0 °F
Feels Like 34 °F
N
16.0
Wind Variable Wind from North
Gusts 23.0 mph

Today
High -- | Low -- °F
--% Chance of Precip.
Yesterday
High -- | Low -- °F
Precip. -- in
6:09 AM 7:19 PM
Waning Gibbous, 63% visible
Pressure 29.98 in
Visibility 10.0 miles
Clouds Clear
Windchill 34 °F
Dew Point 37.0 °F
Humidity 82%
Rainfall in
Snow Depth Not available.
UV 0 out of 12
Pollen 6.80 out of 12
Air Quality Not available.
Flu Activity Not available.
METAR KGIC 040515Z AUTO 00000KT 10SM CLR 05/05 A2998 RMK AO1 T00530046
Pressure 29.98 in
Visibility 10.0 miles
Clouds Clear
Windchill 34 °F
Dew Point 37.0 °F
Humidity 82%
Rainfall in
Snow Depth Not available.
UV 0 out of 12
Pollen 6.80 out of 12
Air Quality Not available.
Flu Activity Not available.
METAR KGIC 040515Z AUTO 00000KT 10SM CLR 05/05 A2998 RMK AO1 T00530046

10-Day Weather Forecast

×

Almanac

Astronomy

Sep. 03, 2015 Rise Set
Actual Time
Civil Twilight
Nautical Twilight
Astronomical Twilight
Moon
Length of Visible Light
Length of Day
Tomorrow will be .
, % of the Moon is Illuminated

Today's Extremes

State Highs State Lows

Community

WunderPhotos

Upload Photos

1,852,129 photos uploaded!

WunderBlogs® & News

Nearby

Air Quality

  Air Quality AQ Index Pollutant
Not available.

Snow Depth

Station Depth Elevation

Earthquake Activity

City Distance Mag. Time & Date
Minimum magnitude displayed is 2.5.

Coastal Water Temperatures

Place Temperature

Stations

Nearby Weather Stations

Station Location Temp. Windchill Dew Point Humidity Wind Precip. Elev Updated Type